sensor_id;sensor_type;location;lat;lon;timestamp;P1;durP1;ratioP1;P2;durP2;ratioP2
52564;SDS011;38460;53.106;7.004;2022-12-07T00:02:20;13.18;;;6.00;;
52564;SDS011;38460;53.106;7.004;2022-12-07T00:04:46;10.68;;;6.07;;
52564;SDS011;38460;53.106;7.004;2022-12-07T00:07:13;8.68;;;4.78;;
52564;SDS011;38460;53.106;7.004;2022-12-07T00:09:39;8.02;;;4.32;;
52564;SDS011;38460;53.106;7.004;2022-12-07T00:12:06;9.30;;;4.13;;
52564;SDS011;38460;53.106;7.004;2022-12-07T00:14:33;8.57;;;4.28;;
52564;SDS011;38460;53.106;7.004;2022-12-07T00:16:58;12.50;;;4.72;;
52564;SDS011;38460;53.106;7.004;2022-12-07T00:19:24;9.15;;;4.13;;
52564;SDS011;38460;53.106;7.004;2022-12-07T00:21:50;8.32;;;4.45;;
52564;SDS011;38460;53.106;7.004;2022-12-07T00:24:16;9.10;;;4.07;;
52564;SDS011;38460;53.106;7.004;2022-12-07T00:26:42;9.45;;;3.85;;
52564;SDS011;38460;53.106;7.004;2022-12-07T00:29:13;11.07;;;3.30;;
52564;SDS011;38460;53.106;7.004;2022-12-07T00:31:42;9.10;;;3.15;;
52564;SDS011;38460;53.106;7.004;2022-12-07T00:34:11;6.45;;;2.53;;
52564;SDS011;38460;53.106;7.004;2022-12-07T00:36:41;7.30;;;3.33;;
52564;SDS011;38460;53.106;7.004;2022-12-07T00:39:07;10.30;;;2.60;;
52564;SDS011;38460;53.106;7.004;2022-12-07T00:41:33;6.60;;;3.15;;
52564;SDS011;38460;53.106;7.004;2022-12-07T00:43:59;6.95;;;2.38;;
52564;SDS011;38460;53.106;7.004;2022-12-07T00:46:25;10.52;;;2.95;;
52564;SDS011;38460;53.106;7.004;2022-12-07T00:48:51;4.68;;;2.45;;
52564;SDS011;38460;53.106;7.004;2022-12-07T00:51:19;6.65;;;2.40;;
52564;SDS011;38460;53.106;7.004;2022-12-07T00:53:48;6.45;;;2.22;;
52564;SDS011;38460;53.106;7.004;2022-12-07T00:56:16;4.95;;;2.00;;
52564;SDS011;38460;53.106;7.004;2022-12-07T00:58:49;4.38;;;1.80;;
52564;SDS011;38460;53.106;7.004;2022-12-07T01:01:29;9.32;;;2.50;;
52564;SDS011;38460;53.106;7.004;2022-12-07T01:03:56;8.48;;;2.40;;
52564;SDS011;38460;53.106;7.004;2022-12-07T01:06:23;9.07;;;2.30;;
52564;SDS011;38460;53.106;7.004;2022-12-07T01:08:49;4.53;;;1.98;;
52564;SDS011;38460;53.106;7.004;2022-12-07T01:11:16;4.53;;;2.00;;
52564;SDS011;38460;53.106;7.004;2022-12-07T01:13:45;8.60;;;2.78;;
52564;SDS011;38460;53.106;7.004;2022-12-07T01:16:14;6.30;;;1.92;;
52564;SDS011;38460;53.106;7.004;2022-12-07T01:18:42;5.15;;;2.65;;
52564;SDS011;38460;53.106;7.004;2022-12-07T01:21:11;4.82;;;1.75;;
52564;SDS011;38460;53.106;7.004;2022-12-07T01:23:39;5.28;;;1.85;;
52564;SDS011;38460;53.106;7.004;2022-12-07T01:26:09;4.10;;;1.55;;
52564;SDS011;38460;53.106;7.004;2022-12-07T01:28:37;5.28;;;1.92;;
52564;SDS011;38460;53.106;7.004;2022-12-07T01:31:08;10.20;;;2.45;;
52564;SDS011;38460;53.106;7.004;2022-12-07T01:33:40;9.23;;;2.15;;
52564;SDS011;38460;53.106;7.004;2022-12-07T01:36:08;7.20;;;1.75;;
52564;SDS011;38460;53.106;7.004;2022-12-07T01:38:55;6.82;;;1.77;;
52564;SDS011;38460;53.106;7.004;2022-12-07T01:41:23;3.70;;;1.77;;
52564;SDS011;38460;53.106;7.004;2022-12-07T01:46:34;6.60;;;2.45;;
52564;SDS011;38460;53.106;7.004;2022-12-07T01:49:00;6.65;;;2.22;;
52564;SDS011;38460;53.106;7.004;2022-12-07T01:51:28;6.55;;;2.30;;
52564;SDS011;38460;53.106;7.004;2022-12-07T01:53:54;7.43;;;1.75;;
52564;SDS011;38460;53.106;7.004;2022-12-07T01:56:22;4.82;;;2.22;;
52564;SDS011;38460;53.106;7.004;2022-12-07T01:58:51;6.47;;;2.10;;
52564;SDS011;38460;53.106;7.004;2022-12-07T02:01:19;11.50;;;2.40;;
52564;SDS011;38460;53.106;7.004;2022-12-07T02:03:45;7.82;;;2.90;;
52564;SDS011;38460;53.106;7.004;2022-12-07T02:06:12;6.05;;;2.45;;
52564;SDS011;38460;53.106;7.004;2022-12-07T02:08:42;10.32;;;2.85;;
52564;SDS011;38460;53.106;7.004;2022-12-07T02:11:08;9.60;;;3.20;;
52564;SDS011;38460;53.106;7.004;2022-12-07T02:13:35;9.30;;;3.20;;
52564;SDS011;38460;53.106;7.004;2022-12-07T02:16:20;7.53;;;1.52;;
52564;SDS011;38460;53.106;7.004;2022-12-07T02:26:37;7.22;;;1.45;;
52564;SDS011;38460;53.106;7.004;2022-12-07T02:39:29;5.47;;;1.20;;
52564;SDS011;38460;53.106;7.004;2022-12-07T02:42:09;8.13;;;1.40;;
52564;SDS011;38460;53.106;7.004;2022-12-07T02:44:40;5.22;;;1.20;;
52564;SDS011;38460;53.106;7.004;2022-12-07T02:47:07;3.45;;;1.10;;
52564;SDS011;38460;53.106;7.004;2022-12-07T02:49:37;5.60;;;1.30;;
52564;SDS011;38460;53.106;7.004;2022-12-07T02:52:04;4.22;;;1.23;;
52564;SDS011;38460;53.106;7.004;2022-12-07T02:54:30;5.53;;;1.17;;
52564;SDS011;38460;53.106;7.004;2022-12-07T03:02:27;4.43;;;1.05;;
52564;SDS011;38460;53.106;7.004;2022-12-07T03:10:55;7.95;;;1.33;;
52564;SDS011;38460;53.106;7.004;2022-12-07T03:13:37;4.72;;;1.35;;
52564;SDS011;38460;53.106;7.004;2022-12-07T03:16:27;4.45;;;1.52;;
52564;SDS011;38460;53.106;7.004;2022-12-07T03:19:07;9.32;;;5.22;;
52564;SDS011;38460;53.106;7.004;2022-12-07T03:21:37;9.63;;;7.55;;
52564;SDS011;38460;53.106;7.004;2022-12-07T03:24:08;9.90;;;7.00;;
52564;SDS011;38460;53.106;7.004;2022-12-07T03:26:41;9.38;;;5.68;;
52564;SDS011;38460;53.106;7.004;2022-12-07T03:29:14;4.97;;;2.80;;
52564;SDS011;38460;53.106;7.004;2022-12-07T03:31:48;7.65;;;2.00;;
52564;SDS011;38460;53.106;7.004;2022-12-07T03:34:29;6.15;;;1.63;;
52564;SDS011;38460;53.106;7.004;2022-12-07T03:37:10;7.00;;;2.10;;
52564;SDS011;38460;53.106;7.004;2022-12-07T03:40:16;5.97;;;1.90;;
52564;SDS011;38460;53.106;7.004;2022-12-07T03:42:47;3.67;;;1.65;;
52564;SDS011;38460;53.106;7.004;2022-12-07T03:45:14;4.43;;;1.73;;
52564;SDS011;38460;53.106;7.004;2022-12-07T03:47:56;6.47;;;2.40;;
52564;SDS011;38460;53.106;7.004;2022-12-07T03:51:07;5.50;;;1.35;;
52564;SDS011;38460;53.106;7.004;2022-12-07T03:53:39;4.22;;;1.75;;
52564;SDS011;38460;53.106;7.004;2022-12-07T03:56:09;4.18;;;1.33;;
52564;SDS011;38460;53.106;7.004;2022-12-07T03:58:37;4.60;;;1.25;;
52564;SDS011;38460;53.106;7.004;2022-12-07T04:01:04;3.72;;;1.55;;
52564;SDS011;38460;53.106;7.004;2022-12-07T04:03:29;3.55;;;1.30;;
52564;SDS011;38460;53.106;7.004;2022-12-07T04:05:55;4.32;;;1.33;;
52564;SDS011;38460;53.106;7.004;2022-12-07T04:08:23;5.97;;;1.40;;
52564;SDS011;38460;53.106;7.004;2022-12-07T04:10:48;5.45;;;1.33;;
52564;SDS011;38460;53.106;7.004;2022-12-07T04:13:14;7.63;;;2.00;;
52564;SDS011;38460;53.106;7.004;2022-12-07T04:15:40;6.35;;;1.40;;
52564;SDS011;38460;53.106;7.004;2022-12-07T04:18:06;5.88;;;1.20;;
52564;SDS011;38460;53.106;7.004;2022-12-07T04:20:31;7.95;;;1.65;;
52564;SDS011;38460;53.106;7.004;2022-12-07T04:22:57;5.40;;;1.60;;
52564;SDS011;38460;53.106;7.004;2022-12-07T04:25:23;5.15;;;1.42;;
52564;SDS011;38460;53.106;7.004;2022-12-07T04:27:49;6.10;;;1.50;;
52564;SDS011;38460;53.106;7.004;2022-12-07T04:30:14;8.55;;;1.42;;
52564;SDS011;38460;53.106;7.004;2022-12-07T04:32:40;4.05;;;1.30;;
52564;SDS011;38460;53.106;7.004;2022-12-07T04:35:06;6.50;;;1.38;;
52564;SDS011;38460;53.106;7.004;2022-12-07T04:37:32;3.90;;;1.15;;
52564;SDS011;38460;53.106;7.004;2022-12-07T04:39:58;4.60;;;1.48;;
52564;SDS011;38460;53.106;7.004;2022-12-07T04:42:24;5.00;;;1.40;;
52564;SDS011;38460;53.106;7.004;2022-12-07T04:44:49;6.45;;;1.15;;
52564;SDS011;38460;53.106;7.004;2022-12-07T04:47:16;4.53;;;1.10;;
52564;SDS011;38460;53.106;7.004;2022-12-07T04:49:42;4.90;;;1.17;;
52564;SDS011;38460;53.106;7.004;2022-12-07T04:52:08;5.07;;;1.30;;
52564;SDS011;38460;53.106;7.004;2022-12-07T04:54:33;6.35;;;1.10;;
52564;SDS011;38460;53.106;7.004;2022-12-07T04:56:59;6.40;;;1.30;;
52564;SDS011;38460;53.106;7.004;2022-12-07T04:59:25;3.17;;;1.20;;
52564;SDS011;38460;53.106;7.004;2022-12-07T05:01:51;5.65;;;1.20;;
52564;SDS011;38460;53.106;7.004;2022-12-07T05:04:16;2.17;;;1.10;;
52564;SDS011;38460;53.106;7.004;2022-12-07T05:06:43;4.07;;;1.10;;
52564;SDS011;38460;53.106;7.004;2022-12-07T05:09:09;3.55;;;1.13;;
52564;SDS011;38460;53.106;7.004;2022-12-07T05:11:34;4.85;;;1.33;;
52564;SDS011;38460;53.106;7.004;2022-12-07T05:14:04;4.53;;;1.00;;
52564;SDS011;38460;53.106;7.004;2022-12-07T05:16:35;9.77;;;2.88;;
52564;SDS011;38460;53.106;7.004;2022-12-07T05:19:02;4.60;;;1.13;;
52564;SDS011;38460;53.106;7.004;2022-12-07T05:21:28;5.05;;;1.05;;
52564;SDS011;38460;53.106;7.004;2022-12-07T05:23:53;6.90;;;1.65;;
52564;SDS011;38460;53.106;7.004;2022-12-07T05:26:19;2.67;;;1.13;;
52564;SDS011;38460;53.106;7.004;2022-12-07T05:28:49;4.38;;;1.38;;
52564;SDS011;38460;53.106;7.004;2022-12-07T05:31:16;3.97;;;1.10;;
52564;SDS011;38460;53.106;7.004;2022-12-07T05:33:42;3.80;;;1.17;;
52564;SDS011;38460;53.106;7.004;2022-12-07T05:36:08;4.03;;;1.15;;
52564;SDS011;38460;53.106;7.004;2022-12-07T05:38:34;5.22;;;1.50;;
52564;SDS011;38460;53.106;7.004;2022-12-07T05:41:00;3.17;;;0.90;;
52564;SDS011;38460;53.106;7.004;2022-12-07T05:43:27;6.07;;;1.27;;
52564;SDS011;38460;53.106;7.004;2022-12-07T05:45:54;2.65;;;0.98;;
52564;SDS011;38460;53.106;7.004;2022-12-07T05:48:19;6.57;;;1.20;;
52564;SDS011;38460;53.106;7.004;2022-12-07T05:50:47;4.28;;;1.35;;
52564;SDS011;38460;53.106;7.004;2022-12-07T05:53:14;4.47;;;1.20;;
52564;SDS011;38460;53.106;7.004;2022-12-07T05:55:40;3.55;;;1.10;;
52564;SDS011;38460;53.106;7.004;2022-12-07T05:58:05;2.55;;;1.15;;
52564;SDS011;38460;53.106;7.004;2022-12-07T06:00:50;4.70;;;1.40;;
52564;SDS011;38460;53.106;7.004;2022-12-07T06:03:16;2.33;;;1.15;;
52564;SDS011;38460;53.106;7.004;2022-12-07T06:05:42;6.82;;;1.20;;
52564;SDS011;38460;53.106;7.004;2022-12-07T06:08:07;3.80;;;1.10;;
52564;SDS011;38460;53.106;7.004;2022-12-07T06:10:33;4.47;;;0.90;;
52564;SDS011;38460;53.106;7.004;2022-12-07T06:12:59;6.63;;;1.40;;
52564;SDS011;38460;53.106;7.004;2022-12-07T06:15:25;6.25;;;1.23;;
52564;SDS011;38460;53.106;7.004;2022-12-07T06:17:51;5.78;;;1.20;;
52564;SDS011;38460;53.106;7.004;2022-12-07T06:20:16;5.15;;;1.77;;
52564;SDS011;38460;53.106;7.004;2022-12-07T06:22:42;2.83;;;1.35;;
52564;SDS011;38460;53.106;7.004;2022-12-07T06:25:08;5.15;;;2.20;;
52564;SDS011;38460;53.106;7.004;2022-12-07T06:27:35;3.78;;;1.70;;
52564;SDS011;38460;53.106;7.004;2022-12-07T06:30:01;5.72;;;1.50;;
52564;SDS011;38460;53.106;7.004;2022-12-07T06:32:31;4.53;;;1.77;;
52564;SDS011;38460;53.106;7.004;2022-12-07T06:34:59;9.90;;;1.65;;
52564;SDS011;38460;53.106;7.004;2022-12-07T06:37:24;6.78;;;1.30;;
52564;SDS011;38460;53.106;7.004;2022-12-07T06:39:50;4.60;;;1.20;;
52564;SDS011;38460;53.106;7.004;2022-12-07T06:42:16;4.45;;;1.25;;
52564;SDS011;38460;53.106;7.004;2022-12-07T06:44:42;8.43;;;1.60;;
52564;SDS011;38460;53.106;7.004;2022-12-07T06:47:08;4.55;;;1.52;;
52564;SDS011;38460;53.106;7.004;2022-12-07T06:49:34;5.00;;;2.40;;
52564;SDS011;38460;53.106;7.004;2022-12-07T06:52:00;5.38;;;2.65;;
52564;SDS011;38460;53.106;7.004;2022-12-07T06:54:26;9.02;;;2.15;;
52564;SDS011;38460;53.106;7.004;2022-12-07T06:56:52;6.03;;;2.40;;
52564;SDS011;38460;53.106;7.004;2022-12-07T06:59:18;8.05;;;2.35;;
52564;SDS011;38460;53.106;7.004;2022-12-07T07:01:43;9.60;;;2.25;;
52564;SDS011;38460;53.106;7.004;2022-12-07T07:04:09;6.05;;;2.20;;
52564;SDS011;38460;53.106;7.004;2022-12-07T07:06:35;6.47;;;1.95;;
52564;SDS011;38460;53.106;7.004;2022-12-07T07:09:01;7.10;;;1.83;;
52564;SDS011;38460;53.106;7.004;2022-12-07T07:11:26;4.55;;;1.70;;
52564;SDS011;38460;53.106;7.004;2022-12-07T07:13:52;7.38;;;1.83;;
52564;SDS011;38460;53.106;7.004;2022-12-07T07:16:18;6.68;;;2.10;;
52564;SDS011;38460;53.106;7.004;2022-12-07T07:18:44;4.25;;;2.00;;
52564;SDS011;38460;53.106;7.004;2022-12-07T07:21:10;3.80;;;1.40;;
52564;SDS011;38460;53.106;7.004;2022-12-07T07:23:35;3.95;;;1.75;;
52564;SDS011;38460;53.106;7.004;2022-12-07T07:26:01;8.68;;;1.92;;
52564;SDS011;38460;53.106;7.004;2022-12-07T07:28:27;4.13;;;1.58;;
52564;SDS011;38460;53.106;7.004;2022-12-07T07:30:53;4.40;;;2.50;;
52564;SDS011;38460;53.106;7.004;2022-12-07T07:33:18;6.63;;;1.70;;
52564;SDS011;38460;53.106;7.004;2022-12-07T07:35:44;7.45;;;1.88;;
52564;SDS011;38460;53.106;7.004;2022-12-07T07:38:10;5.03;;;1.85;;
52564;SDS011;38460;53.106;7.004;2022-12-07T07:40:36;5.78;;;2.08;;
52564;SDS011;38460;53.106;7.004;2022-12-07T07:43:01;4.85;;;1.80;;
52564;SDS011;38460;53.106;7.004;2022-12-07T07:45:27;5.05;;;1.77;;
52564;SDS011;38460;53.106;7.004;2022-12-07T07:47:53;10.23;;;3.08;;
52564;SDS011;38460;53.106;7.004;2022-12-07T07:50:19;9.18;;;3.05;;
52564;SDS011;38460;53.106;7.004;2022-12-07T07:52:46;8.55;;;4.30;;
52564;SDS011;38460;53.106;7.004;2022-12-07T07:55:12;11.73;;;3.58;;
52564;SDS011;38460;53.106;7.004;2022-12-07T07:57:38;8.93;;;2.35;;
52564;SDS011;38460;53.106;7.004;2022-12-07T08:00:06;9.30;;;2.60;;
52564;SDS011;38460;53.106;7.004;2022-12-07T08:02:34;8.20;;;3.25;;
52564;SDS011;38460;53.106;7.004;2022-12-07T08:04:59;5.60;;;2.30;;
52564;SDS011;38460;53.106;7.004;2022-12-07T08:07:26;3.88;;;1.70;;
52564;SDS011;38460;53.106;7.004;2022-12-07T08:09:53;6.00;;;1.40;;
52564;SDS011;38460;53.106;7.004;2022-12-07T08:12:18;4.78;;;1.65;;
52564;SDS011;38460;53.106;7.004;2022-12-07T08:14:44;4.40;;;1.80;;
52564;SDS011;38460;53.106;7.004;2022-12-07T08:17:10;6.40;;;1.58;;
52564;SDS011;38460;53.106;7.004;2022-12-07T08:19:36;5.78;;;1.50;;
52564;SDS011;38460;53.106;7.004;2022-12-07T08:22:01;3.97;;;1.67;;
52564;SDS011;38460;53.106;7.004;2022-12-07T08:24:27;5.05;;;1.35;;
52564;SDS011;38460;53.106;7.004;2022-12-07T08:26:53;5.20;;;1.55;;
52564;SDS011;38460;53.106;7.004;2022-12-07T08:29:19;4.10;;;1.70;;
52564;SDS011;38460;53.106;7.004;2022-12-07T08:31:46;5.15;;;1.73;;
52564;SDS011;38460;53.106;7.004;2022-12-07T08:34:12;6.13;;;2.63;;
52564;SDS011;38460;53.106;7.004;2022-12-07T08:36:39;4.65;;;1.48;;
52564;SDS011;38460;53.106;7.004;2022-12-07T08:39:04;6.70;;;2.40;;
52564;SDS011;38460;53.106;7.004;2022-12-07T08:41:31;4.50;;;2.20;;
52564;SDS011;38460;53.106;7.004;2022-12-07T08:43:57;6.30;;;2.20;;
52564;SDS011;38460;53.106;7.004;2022-12-07T08:46:39;9.13;;;3.60;;
52564;SDS011;38460;53.106;7.004;2022-12-07T08:49:22;6.43;;;2.72;;
52564;SDS011;38460;53.106;7.004;2022-12-07T08:51:51;7.25;;;3.90;;
52564;SDS011;38460;53.106;7.004;2022-12-07T08:54:17;13.57;;;4.82;;
52564;SDS011;38460;53.106;7.004;2022-12-07T08:56:44;9.85;;;5.13;;
52564;SDS011;38460;53.106;7.004;2022-12-07T08:59:13;8.38;;;3.10;;
52564;SDS011;38460;53.106;7.004;2022-12-07T09:01:41;7.03;;;3.08;;
52564;SDS011;38460;53.106;7.004;2022-12-07T09:04:06;5.90;;;2.38;;
52564;SDS011;38460;53.106;7.004;2022-12-07T09:06:32;6.68;;;2.03;;
52564;SDS011;38460;53.106;7.004;2022-12-07T09:08:58;5.30;;;1.80;;
52564;SDS011;38460;53.106;7.004;2022-12-07T09:11:26;7.97;;;2.08;;
52564;SDS011;38460;53.106;7.004;2022-12-07T09:13:52;8.02;;;2.13;;
52564;SDS011;38460;53.106;7.004;2022-12-07T09:16:18;6.53;;;3.00;;
52564;SDS011;38460;53.106;7.004;2022-12-07T09:18:44;6.65;;;3.60;;
52564;SDS011;38460;53.106;7.004;2022-12-07T09:21:10;6.05;;;2.67;;
52564;SDS011;38460;53.106;7.004;2022-12-07T09:23:35;7.20;;;2.72;;
52564;SDS011;38460;53.106;7.004;2022-12-07T09:26:03;5.50;;;2.50;;
52564;SDS011;38460;53.106;7.004;2022-12-07T09:28:32;6.57;;;2.33;;
52564;SDS011;38460;53.106;7.004;2022-12-07T09:30:58;8.85;;;2.00;;
52564;SDS011;38460;53.106;7.004;2022-12-07T09:33:24;7.00;;;1.75;;
52564;SDS011;38460;53.106;7.004;2022-12-07T09:35:50;9.15;;;1.70;;
52564;SDS011;38460;53.106;7.004;2022-12-07T09:38:17;6.80;;;2.47;;
52564;SDS011;38460;53.106;7.004;2022-12-07T09:40:43;5.82;;;1.75;;
52564;SDS011;38460;53.106;7.004;2022-12-07T09:43:13;6.82;;;1.88;;
52564;SDS011;38460;53.106;7.004;2022-12-07T09:45:45;4.95;;;2.40;;
52564;SDS011;38460;53.106;7.004;2022-12-07T09:48:18;9.10;;;2.92;;
52564;SDS011;38460;53.106;7.004;2022-12-07T09:50:59;7.07;;;3.25;;
52564;SDS011;38460;53.106;7.004;2022-12-07T09:53:30;9.63;;;4.70;;
52564;SDS011;38460;53.106;7.004;2022-12-07T09:55:59;11.27;;;5.22;;
52564;SDS011;38460;53.106;7.004;2022-12-07T09:58:27;12.43;;;4.05;;
52564;SDS011;38460;53.106;7.004;2022-12-07T10:01:05;7.53;;;2.78;;
52564;SDS011;38460;53.106;7.004;2022-12-07T10:03:44;7.18;;;2.53;;
52564;SDS011;38460;53.106;7.004;2022-12-07T10:06:17;9.20;;;3.15;;
52564;SDS011;38460;53.106;7.004;2022-12-07T10:08:43;6.47;;;2.03;;
52564;SDS011;38460;53.106;7.004;2022-12-07T10:11:10;10.38;;;2.80;;
52564;SDS011;38460;53.106;7.004;2022-12-07T10:13:40;7.75;;;2.40;;
52564;SDS011;38460;53.106;7.004;2022-12-07T10:22:00;6.20;;;2.95;;
52564;SDS011;38460;53.106;7.004;2022-12-07T10:24:29;10.52;;;3.78;;
52564;SDS011;38460;53.106;7.004;2022-12-07T10:26:55;7.95;;;2.63;;
52564;SDS011;38460;53.106;7.004;2022-12-07T10:29:23;7.45;;;2.30;;
52564;SDS011;38460;53.106;7.004;2022-12-07T10:31:52;7.32;;;2.03;;
52564;SDS011;38460;53.106;7.004;2022-12-07T10:34:31;5.47;;;2.30;;
52564;SDS011;38460;53.106;7.004;2022-12-07T10:37:33;8.10;;;3.00;;
52564;SDS011;38460;53.106;7.004;2022-12-07T10:39:54;8.73;;;2.40;;
52564;SDS011;38460;53.106;7.004;2022-12-07T10:44:48;4.13;;;1.30;;
52564;SDS011;38460;53.106;7.004;2022-12-07T10:57:47;7.00;;;2.42;;
52564;SDS011;38460;53.106;7.004;2022-12-07T11:00:25;9.82;;;2.85;;
52564;SDS011;38460;53.106;7.004;2022-12-07T11:08:39;7.82;;;3.10;;
52564;SDS011;38460;53.106;7.004;2022-12-07T11:11:42;6.47;;;3.28;;
52564;SDS011;38460;53.106;7.004;2022-12-07T11:25:32;12.65;;;3.90;;
52564;SDS011;38460;53.106;7.004;2022-12-07T11:30:57;10.93;;;3.92;;
52564;SDS011;38460;53.106;7.004;2022-12-07T11:33:42;8.27;;;3.28;;
52564;SDS011;38460;53.106;7.004;2022-12-07T11:36:31;6.07;;;2.50;;
52564;SDS011;38460;53.106;7.004;2022-12-07T11:41:54;8.68;;;2.95;;
52564;SDS011;38460;53.106;7.004;2022-12-07T11:53:03;5.22;;;1.83;;
52564;SDS011;38460;53.106;7.004;2022-12-07T11:55:40;7.95;;;1.73;;
52564;SDS011;38460;53.106;7.004;2022-12-07T12:06:40;6.32;;;1.35;;
52564;SDS011;38460;53.106;7.004;2022-12-07T12:12:15;4.38;;;1.20;;
52564;SDS011;38460;53.106;7.004;2022-12-07T12:20:56;3.95;;;1.40;;
52564;SDS011;38460;53.106;7.004;2022-12-07T12:23:32;4.00;;;1.38;;
52564;SDS011;38460;53.106;7.004;2022-12-07T12:26:17;4.97;;;1.48;;
52564;SDS011;38460;53.106;7.004;2022-12-07T12:29:00;5.10;;;1.60;;
52564;SDS011;38460;53.106;7.004;2022-12-07T12:36:50;3.80;;;1.73;;
52564;SDS011;38460;53.106;7.004;2022-12-07T12:39:16;4.97;;;1.25;;
52564;SDS011;38460;53.106;7.004;2022-12-07T12:46:48;2.63;;;1.15;;
52564;SDS011;38460;53.106;7.004;2022-12-07T12:54:29;2.83;;;0.90;;
52564;SDS011;38460;53.106;7.004;2022-12-07T12:57:07;5.28;;;1.50;;
52564;SDS011;38460;53.106;7.004;2022-12-07T12:59:42;2.92;;;1.13;;
52564;SDS011;38460;53.106;7.004;2022-12-07T13:02:37;4.15;;;1.13;;
52564;SDS011;38460;53.106;7.004;2022-12-07T13:10:22;3.35;;;1.33;;
52564;SDS011;38460;53.106;7.004;2022-12-07T13:15:31;2.92;;;1.25;;
52564;SDS011;38460;53.106;7.004;2022-12-07T13:18:01;3.97;;;1.30;;
52564;SDS011;38460;53.106;7.004;2022-12-07T13:28:58;4.88;;;1.58;;
52564;SDS011;38460;53.106;7.004;2022-12-07T13:34:03;2.47;;;1.48;;
52564;SDS011;38460;53.106;7.004;2022-12-07T13:36:36;3.83;;;1.30;;
52564;SDS011;38460;53.106;7.004;2022-12-07T13:39:11;5.35;;;1.27;;
52564;SDS011;38460;53.106;7.004;2022-12-07T13:41:42;3.65;;;1.20;;
52564;SDS011;38460;53.106;7.004;2022-12-07T13:44:09;4.22;;;1.45;;
52564;SDS011;38460;53.106;7.004;2022-12-07T13:46:43;6.18;;;1.45;;
52564;SDS011;38460;53.106;7.004;2022-12-07T13:49:16;8.07;;;1.38;;
52564;SDS011;38460;53.106;7.004;2022-12-07T13:51:44;5.75;;;1.30;;
52564;SDS011;38460;53.106;7.004;2022-12-07T13:54:11;3.53;;;1.27;;
52564;SDS011;38460;53.106;7.004;2022-12-07T13:56:38;5.65;;;1.55;;
52564;SDS011;38460;53.106;7.004;2022-12-07T13:59:12;6.50;;;1.27;;
52564;SDS011;38460;53.106;7.004;2022-12-07T14:01:42;2.90;;;1.23;;
52564;SDS011;38460;53.106;7.004;2022-12-07T14:04:16;4.63;;;1.17;;
52564;SDS011;38460;53.106;7.004;2022-12-07T14:07:18;5.10;;;1.20;;
52564;SDS011;38460;53.106;7.004;2022-12-07T14:09:54;4.45;;;2.40;;
52564;SDS011;38460;53.106;7.004;2022-12-07T14:12:31;7.82;;;5.97;;
52564;SDS011;38460;53.106;7.004;2022-12-07T14:15:00;11.18;;;7.32;;
52564;SDS011;38460;53.106;7.004;2022-12-07T14:17:28;6.40;;;4.10;;
52564;SDS011;38460;53.106;7.004;2022-12-07T14:19:56;4.72;;;2.88;;
52564;SDS011;38460;53.106;7.004;2022-12-07T14:25:43;6.55;;;1.30;;
52564;SDS011;38460;53.106;7.004;2022-12-07T14:30:21;6.55;;;4.57;;
52564;SDS011;38460;53.106;7.004;2022-12-07T14:32:53;7.68;;;5.70;;
52564;SDS011;38460;53.106;7.004;2022-12-07T14:35:30;9.98;;;6.95;;
52564;SDS011;38460;53.106;7.004;2022-12-07T14:37:57;8.82;;;5.55;;
52564;SDS011;38460;53.106;7.004;2022-12-07T14:40:24;7.60;;;3.08;;
52564;SDS011;38460;53.106;7.004;2022-12-07T14:43:05;3.35;;;1.58;;
52564;SDS011;38460;53.106;7.004;2022-12-07T14:45:35;3.03;;;1.73;;
52564;SDS011;38460;53.106;7.004;2022-12-07T14:48:01;3.15;;;1.40;;
52564;SDS011;38460;53.106;7.004;2022-12-07T14:50:27;6.10;;;1.77;;
52564;SDS011;38460;53.106;7.004;2022-12-07T14:52:57;3.58;;;1.40;;
52564;SDS011;38460;53.106;7.004;2022-12-07T14:55:27;3.53;;;3.05;;
52564;SDS011;38460;53.106;7.004;2022-12-07T14:57:55;6.38;;;4.18;;
52564;SDS011;38460;53.106;7.004;2022-12-07T15:00:23;5.47;;;4.20;;
52564;SDS011;38460;53.106;7.004;2022-12-07T15:02:50;3.58;;;3.10;;
52564;SDS011;38460;53.106;7.004;2022-12-07T15:05:17;4.03;;;2.50;;
52564;SDS011;38460;53.106;7.004;2022-12-07T15:07:44;3.05;;;1.45;;
52564;SDS011;38460;53.106;7.004;2022-12-07T15:10:18;2.22;;;1.08;;
52564;SDS011;38460;53.106;7.004;2022-12-07T15:12:46;1.90;;;0.90;;
52564;SDS011;38460;53.106;7.004;2022-12-07T15:15:12;4.30;;;0.93;;
52564;SDS011;38460;53.106;7.004;2022-12-07T15:17:38;4.60;;;0.95;;
52564;SDS011;38460;53.106;7.004;2022-12-07T15:20:04;2.40;;;1.25;;
52564;SDS011;38460;53.106;7.004;2022-12-07T15:22:30;3.13;;;1.00;;
52564;SDS011;38460;53.106;7.004;2022-12-07T15:24:57;4.95;;;1.25;;
52564;SDS011;38460;53.106;7.004;2022-12-07T15:27:23;8.88;;;1.50;;
52564;SDS011;38460;53.106;7.004;2022-12-07T15:29:49;2.85;;;1.20;;
52564;SDS011;38460;53.106;7.004;2022-12-07T15:32:14;4.88;;;1.52;;
52564;SDS011;38460;53.106;7.004;2022-12-07T15:34:40;5.10;;;1.35;;
52564;SDS011;38460;53.106;7.004;2022-12-07T15:37:06;8.75;;;4.20;;
52564;SDS011;38460;53.106;7.004;2022-12-07T15:39:32;4.18;;;1.80;;
52564;SDS011;38460;53.106;7.004;2022-12-07T15:41:58;5.63;;;2.13;;
52564;SDS011;38460;53.106;7.004;2022-12-07T15:44:24;5.03;;;1.40;;
52564;SDS011;38460;53.106;7.004;2022-12-07T15:47:08;3.70;;;1.88;;
52564;SDS011;38460;53.106;7.004;2022-12-07T15:49:34;6.10;;;1.65;;
52564;SDS011;38460;53.106;7.004;2022-12-07T15:52:00;7.55;;;2.45;;
52564;SDS011;38460;53.106;7.004;2022-12-07T15:54:27;5.10;;;3.33;;
52564;SDS011;38460;53.106;7.004;2022-12-07T15:56:54;8.73;;;6.43;;
52564;SDS011;38460;53.106;7.004;2022-12-07T15:59:20;7.47;;;5.93;;
52564;SDS011;38460;53.106;7.004;2022-12-07T16:01:46;7.72;;;6.80;;
52564;SDS011;38460;53.106;7.004;2022-12-07T16:04:12;10.57;;;9.48;;
52564;SDS011;38460;53.106;7.004;2022-12-07T16:06:38;8.35;;;6.00;;
52564;SDS011;38460;53.106;7.004;2022-12-07T16:09:04;7.78;;;4.63;;
52564;SDS011;38460;53.106;7.004;2022-12-07T16:11:30;8.57;;;4.65;;
52564;SDS011;38460;53.106;7.004;2022-12-07T16:13:56;6.25;;;2.58;;
52564;SDS011;38460;53.106;7.004;2022-12-07T16:16:22;3.35;;;1.80;;
52564;SDS011;38460;53.106;7.004;2022-12-07T16:18:48;4.72;;;2.08;;
52564;SDS011;38460;53.106;7.004;2022-12-07T16:21:15;6.28;;;1.77;;
52564;SDS011;38460;53.106;7.004;2022-12-07T16:23:42;4.18;;;1.85;;
52564;SDS011;38460;53.106;7.004;2022-12-07T16:26:12;3.72;;;2.05;;
52564;SDS011;38460;53.106;7.004;2022-12-07T16:28:41;5.45;;;2.08;;
52564;SDS011;38460;53.106;7.004;2022-12-07T16:31:09;9.52;;;3.58;;
52564;SDS011;38460;53.106;7.004;2022-12-07T16:33:37;15.70;;;7.72;;
52564;SDS011;38460;53.106;7.004;2022-12-07T16:36:05;10.45;;;5.30;;
52564;SDS011;38460;53.106;7.004;2022-12-07T16:38:32;8.05;;;4.20;;
52564;SDS011;38460;53.106;7.004;2022-12-07T16:40:58;13.25;;;5.80;;
52564;SDS011;38460;53.106;7.004;2022-12-07T16:43:24;7.35;;;3.38;;
52564;SDS011;38460;53.106;7.004;2022-12-07T16:45:50;7.70;;;4.53;;
52564;SDS011;38460;53.106;7.004;2022-12-07T16:48:16;9.93;;;4.72;;
52564;SDS011;38460;53.106;7.004;2022-12-07T16:50:43;7.03;;;4.05;;
52564;SDS011;38460;53.106;7.004;2022-12-07T16:53:09;4.72;;;3.03;;
52564;SDS011;38460;53.106;7.004;2022-12-07T16:55:39;4.13;;;2.15;;
52564;SDS011;38460;53.106;7.004;2022-12-07T16:58:06;4.55;;;1.60;;
52564;SDS011;38460;53.106;7.004;2022-12-07T17:00:32;6.03;;;2.13;;
52564;SDS011;38460;53.106;7.004;2022-12-07T17:02:58;9.60;;;2.83;;
52564;SDS011;38460;53.106;7.004;2022-12-07T17:05:25;3.22;;;1.67;;
52564;SDS011;38460;53.106;7.004;2022-12-07T17:07:53;3.70;;;2.10;;
52564;SDS011;38460;53.106;7.004;2022-12-07T17:10:19;5.90;;;1.95;;
52564;SDS011;38460;53.106;7.004;2022-12-07T17:12:45;5.10;;;1.60;;
52564;SDS011;38460;53.106;7.004;2022-12-07T17:15:11;3.95;;;1.73;;
52564;SDS011;38460;53.106;7.004;2022-12-07T17:17:51;6.82;;;1.48;;
52564;SDS011;38460;53.106;7.004;2022-12-07T17:20:22;4.25;;;2.50;;